createdAt,value
2022-09-03T00:00:15.051Z,18.30
2022-09-03T00:04:29.271Z,18.31
2022-09-03T00:08:39.036Z,18.30
2022-09-03T00:12:44.768Z,18.28
2022-09-03T00:17:00.716Z,18.28
2022-09-03T00:21:08.774Z,18.29
2022-09-03T00:25:29.142Z,18.30
2022-09-03T00:29:41.412Z,18.27
2022-09-03T00:33:46.809Z,18.22
2022-09-03T00:37:49.143Z,18.18
2022-09-03T00:41:59.584Z,18.18
2022-09-03T00:46:07.433Z,18.15
2022-09-03T00:50:29.976Z,18.15
2022-09-03T00:54:40.577Z,18.17
2022-09-03T00:59:01.706Z,18.22
2022-09-03T01:03:11.119Z,18.29
2022-09-03T01:07:18.538Z,18.33
2022-09-03T01:11:51.561Z,18.38
2022-09-03T01:16:21.670Z,18.41
2022-09-03T01:20:35.179Z,18.41
2022-09-03T01:24:49.737Z,18.41
2022-09-03T01:29:13.053Z,18.46
2022-09-03T01:33:38.403Z,18.43
2022-09-03T01:37:54.169Z,18.44
2022-09-03T01:42:16.423Z,18.48
2022-09-03T01:46:29.515Z,18.46
2022-09-03T01:51:22.779Z,18.46
2022-09-03T01:55:30.083Z,18.41
2022-09-03T01:59:38.227Z,18.42
2022-09-03T02:03:44.727Z,18.44
2022-09-03T02:07:49.463Z,18.42
2022-09-03T02:11:59.580Z,18.45
2022-09-03T02:16:07.746Z,18.47
2022-09-03T02:20:12.054Z,18.46
2022-09-03T02:24:14.114Z,18.47
2022-09-03T02:28:17.735Z,18.54
2022-09-03T02:32:19.494Z,18.60
2022-09-03T02:36:27.739Z,18.59
2022-09-03T02:40:29.435Z,18.58
2022-09-03T02:44:35.662Z,18.62
2022-09-03T02:48:39.509Z,18.64
2022-09-03T02:52:41.139Z,18.64
2022-09-03T02:56:43.824Z,18.65
2022-09-03T03:00:45.472Z,18.64
2022-09-03T03:04:47.112Z,18.65
2022-09-03T03:08:50.236Z,18.68
2022-09-03T03:12:51.839Z,18.69
2022-09-03T03:16:53.465Z,18.71
2022-09-03T03:20:55.504Z,18.68
2022-09-03T03:24:57.809Z,18.70
2022-09-03T03:29:01.574Z,18.68
2022-09-03T03:33:03.840Z,18.65
2022-09-03T03:37:05.832Z,18.65
2022-09-03T03:41:13.165Z,18.66
2022-09-03T03:45:14.778Z,18.58
2022-09-03T03:49:16.335Z,18.49
2022-09-03T03:53:18.147Z,18.49
2022-09-03T03:57:20.958Z,18.50
2022-09-03T04:01:25.406Z,18.45
2022-09-03T04:05:27.046Z,18.37
2022-09-03T04:09:35.284Z,18.40
2022-09-03T04:13:39.585Z,18.31
2022-09-03T04:17:41.179Z,18.34
2022-09-03T04:21:43.071Z,18.32
2022-09-03T04:25:45.053Z,18.30
2022-09-03T04:29:50.254Z,18.28
2022-09-03T04:33:51.834Z,18.26
2022-09-03T04:37:55.216Z,18.23
2022-09-03T04:41:57.659Z,18.22
2022-09-03T04:46:04.411Z,18.24
2022-09-03T04:50:06.639Z,18.27
2022-09-03T04:54:09.985Z,18.19
2022-09-03T04:58:11.691Z,18.22
2022-09-03T05:02:15.119Z,18.23
2022-09-03T05:06:17.479Z,18.18
2022-09-03T05:10:22.616Z,18.22
2022-09-03T05:14:24.340Z,18.28
2022-09-03T05:18:25.996Z,18.27
2022-09-03T05:22:27.583Z,18.31
2022-09-03T05:26:31.528Z,18.32
2022-09-03T05:30:33.161Z,18.36
2022-09-03T05:34:34.774Z,18.38
2022-09-03T05:38:36.922Z,18.40
2022-09-03T05:42:39.130Z,18.41
2022-09-03T05:46:40.789Z,18.42
2022-09-03T05:50:42.354Z,18.45
2022-09-03T05:54:43.911Z,18.45
2022-09-03T05:58:48.196Z,18.47
2022-09-03T06:02:53.695Z,18.52
2022-09-03T06:06:56.265Z,18.52
2022-09-03T06:10:59.368Z,18.36
2022-09-03T06:15:01.016Z,18.03
2022-09-03T06:19:03.883Z,17.65
2022-09-03T06:23:05.437Z,17.35
2022-09-03T06:27:08.598Z,17.15
2022-09-03T06:31:14.691Z,16.97
2022-09-03T06:35:16.695Z,16.91
2022-09-03T06:39:18.436Z,16.82
2022-09-03T06:43:20.281Z,16.78
2022-09-03T06:47:21.952Z,16.89
2022-09-03T06:51:27.159Z,17.08
2022-09-03T06:55:28.865Z,17.19
2022-09-03T06:59:30.444Z,17.31
2022-09-03T07:03:32.684Z,17.40
2022-09-03T07:07:34.465Z,17.35
2022-09-03T07:11:37.285Z,17.35
2022-09-03T07:15:40.266Z,17.42
2022-09-03T07:19:41.748Z,17.45
2022-09-03T07:23:44.172Z,17.49
2022-09-03T07:27:47.365Z,17.47
2022-09-03T07:31:53.590Z,17.39
2022-09-03T07:35:55.291Z,17.22
2022-09-03T07:39:56.936Z,17.11
2022-09-03T07:43:59.765Z,17.01
2022-09-03T07:48:01.483Z,17.00
2022-09-03T07:52:03.299Z,17.00
2022-09-03T07:56:10.072Z,16.90
2022-09-03T08:00:13.513Z,16.90
2022-09-03T08:04:15.140Z,17.01
2022-09-03T08:08:17.951Z,17.15
2022-09-03T08:12:21.414Z,17.58
2022-09-03T08:16:23.243Z,18.04
2022-09-03T08:20:24.969Z,18.41
2022-09-03T08:24:26.742Z,18.70
2022-09-03T08:28:28.652Z,18.91
2022-09-03T08:32:30.504Z,19.02
2022-09-03T08:36:34.663Z,19.11
2022-09-03T08:40:38.240Z,19.28
2022-09-03T08:44:50.474Z,19.30
2022-09-03T08:48:53.114Z,19.40
2022-09-03T08:53:14.458Z,19.63
2022-09-03T08:57:19.330Z,19.80
2022-09-03T09:02:11.151Z,20.05
2022-09-03T09:06:56.072Z,20.27
2022-09-03T09:11:08.759Z,20.42
2022-09-03T09:15:13.685Z,20.55
2022-09-03T09:19:31.802Z,20.52
2022-09-03T09:23:43.582Z,20.37
2022-09-03T09:28:03.197Z,20.31
2022-09-03T09:32:09.120Z,20.30
2022-09-03T09:36:16.486Z,20.37
2022-09-03T09:40:33.945Z,20.22
2022-09-03T09:44:37.061Z,20.09
2022-09-03T09:48:48.476Z,20.12
2022-09-03T09:53:08.349Z,20.07
2022-09-03T09:57:26.152Z,20.01
2022-09-03T10:01:30.467Z,20.31
2022-09-03T10:05:37.873Z,20.77
2022-09-03T10:09:39.436Z,21.45
2022-09-03T10:13:45.745Z,21.75
2022-09-03T10:18:00.686Z,21.96
2022-09-03T10:22:10.167Z,22.73
2022-09-03T10:26:17.042Z,23.03
2022-09-03T10:30:18.848Z,23.04
2022-09-03T10:34:41.760Z,23.27
2022-09-03T10:38:43.978Z,23.59
2022-09-03T10:43:18.639Z,23.84
2022-09-03T10:47:43.273Z,23.77
2022-09-03T10:51:59.594Z,24.20
2022-09-03T10:56:24.951Z,24.44
2022-09-03T11:00:30.874Z,24.05
2022-09-03T11:04:52.428Z,23.76
2022-09-03T11:09:06.485Z,23.64
2022-09-03T11:13:23.031Z,23.92
2022-09-03T11:17:32.317Z,23.99
2022-09-03T11:21:37.839Z,23.95
2022-09-03T11:25:49.107Z,24.11
2022-09-03T11:30:09.725Z,24.36
2022-09-03T11:34:31.962Z,24.62
2022-09-03T11:38:35.287Z,24.28
2022-09-03T11:42:38.369Z,23.92
2022-09-03T11:46:46.194Z,24.02
2022-09-03T11:50:55.673Z,25.04
2022-09-03T11:55:00.574Z,25.98
2022-09-03T11:59:14.401Z,26.96
2022-09-03T12:03:18.852Z,27.26
2022-09-03T12:07:42.036Z,27.13
2022-09-03T12:12:09.361Z,26.67
2022-09-03T12:21:03.535Z,27.30
2022-09-03T12:25:16.954Z,26.64
2022-09-03T12:29:31.129Z,26.37
2022-09-03T12:33:41.863Z,26.22
2022-09-03T12:42:16.981Z,26.45
2022-09-03T12:46:18.876Z,26.76
2022-09-03T12:50:24.915Z,26.78
2022-09-03T12:54:27.726Z,26.74
2022-09-03T12:58:40.401Z,26.95
2022-09-03T13:03:08.082Z,27.22
2022-09-03T13:07:23.787Z,27.19
2022-09-03T13:11:26.188Z,27.14
2022-09-03T13:15:29.537Z,27.19
2022-09-03T13:19:37.065Z,27.36
2022-09-03T13:23:57.443Z,28.04
2022-09-03T13:28:23.442Z,27.81
2022-09-03T13:32:27.974Z,27.63
2022-09-03T13:36:49.269Z,27.58
2022-09-03T13:41:03.909Z,29.36
2022-09-03T13:45:31.602Z,30.89
2022-09-03T13:49:59.350Z,30.73
2022-09-03T13:54:13.477Z,30.07
2022-09-03T13:58:33.974Z,29.33
2022-09-03T14:03:16.233Z,28.76
2022-09-03T14:07:25.731Z,27.80
2022-09-03T14:11:35.193Z,27.56
2022-09-03T14:15:45.904Z,27.67
2022-09-03T14:20:01.248Z,27.45
2022-09-03T14:24:34.656Z,27.35
2022-09-03T14:28:40.819Z,27.16
2022-09-03T14:32:55.064Z,27.39
2022-09-03T14:37:14.812Z,28.04
2022-09-03T14:41:52.491Z,28.80
2022-09-03T14:46:28.154Z,28.85
2022-09-03T14:51:04.935Z,29.07
2022-09-03T14:55:35.941Z,28.78
2022-09-03T14:59:43.805Z,28.63
2022-09-03T15:04:20.236Z,28.47
2022-09-03T15:08:46.724Z,27.80
2022-09-03T15:13:10.282Z,27.34
2022-09-03T15:17:41.097Z,26.94
2022-09-03T15:21:55.427Z,26.45
2022-09-03T15:26:19.844Z,26.09
2022-09-03T15:30:21.630Z,25.75
2022-09-03T15:34:34.496Z,25.49
2022-09-03T15:38:51.391Z,25.20
2022-09-03T15:42:58.733Z,25.03
2022-09-03T15:47:05.342Z,24.79
2022-09-03T15:51:45.764Z,24.68
2022-09-03T15:55:48.299Z,24.51
2022-09-03T15:59:49.811Z,24.40
2022-09-03T16:04:01.728Z,24.37
2022-09-03T16:08:19.988Z,24.32
2022-09-03T16:12:46.002Z,24.30
2022-09-03T16:17:28.905Z,24.31
2022-09-03T16:21:30.467Z,24.24
2022-09-03T16:25:38.652Z,24.16
2022-09-03T16:29:40.571Z,24.14
2022-09-03T16:34:18.944Z,24.01
2022-09-03T16:38:30.000Z,23.88
2022-09-03T16:42:44.948Z,23.75
2022-09-03T16:47:00.282Z,23.53
2022-09-03T16:51:29.257Z,23.35
2022-09-03T16:56:00.200Z,23.23
2022-09-03T17:00:21.031Z,22.90
2022-09-03T17:04:22.539Z,22.38
2022-09-03T17:08:32.609Z,22.07
2022-09-03T17:12:52.529Z,21.82
2022-09-03T17:17:16.406Z,21.59
2022-09-03T17:21:33.965Z,21.29
2022-09-03T17:26:06.528Z,21.01
2022-09-03T17:30:11.088Z,20.73
2022-09-03T17:34:54.846Z,20.55
2022-09-03T17:39:08.673Z,20.43
2022-09-03T17:43:42.304Z,20.32
2022-09-03T17:47:53.816Z,20.20
2022-09-03T17:52:14.150Z,20.08
2022-09-03T17:56:29.710Z,19.94
2022-09-03T18:00:38.176Z,19.75
2022-09-03T18:04:49.077Z,19.60
2022-09-03T18:09:17.033Z,19.44
2022-09-03T18:13:40.205Z,19.30
2022-09-03T18:17:51.611Z,19.24
2022-09-03T18:22:12.462Z,19.20
2022-09-03T18:26:44.492Z,19.15
2022-09-03T18:31:04.950Z,19.10
2022-09-03T18:35:27.237Z,19.03
2022-09-03T18:39:48.167Z,18.92
2022-09-03T18:44:57.859Z,18.82
2022-09-03T18:49:47.719Z,18.69
2022-09-03T18:54:14.314Z,18.60
2022-09-03T18:58:54.403Z,18.51
2022-09-03T19:03:48.219Z,18.42
2022-09-03T19:08:24.569Z,18.32
2022-09-03T19:12:59.027Z,18.22
2022-09-03T19:17:29.502Z,18.17
2022-09-03T19:22:04.473Z,18.11
2022-09-03T19:26:46.459Z,18.09
2022-09-03T19:31:24.020Z,18.05
2022-09-03T19:35:59.742Z,18.04
2022-09-03T19:40:59.019Z,18.09
2022-09-03T19:45:31.044Z,18.10
2022-09-03T19:50:18.633Z,18.13
2022-09-03T19:54:42.681Z,18.14
2022-09-03T19:59:16.748Z,18.17
2022-09-03T20:03:37.539Z,18.18
2022-09-03T20:07:58.315Z,18.18
2022-09-03T20:12:07.356Z,18.16
2022-09-03T20:16:32.903Z,18.15
2022-09-03T20:20:58.071Z,18.12
2022-09-03T20:25:16.179Z,18.10
2022-09-03T20:29:34.187Z,18.07
2022-09-03T20:33:49.452Z,18.04
2022-09-03T20:38:22.292Z,17.98
2022-09-03T20:42:43.939Z,17.91
2022-09-03T20:47:07.325Z,17.88
2022-09-03T20:51:22.854Z,17.82
2022-09-03T20:55:29.578Z,17.79
2022-09-03T20:59:53.244Z,17.73
2022-09-03T21:04:04.612Z,17.69
2022-09-03T21:08:25.318Z,17.66
2022-09-03T21:12:51.393Z,17.61
2022-09-03T21:17:06.049Z,17.56
2022-09-03T21:21:36.263Z,17.51
2022-09-03T21:25:44.997Z,17.50
2022-09-03T21:29:58.255Z,17.51
2022-09-03T21:34:09.765Z,17.55
2022-09-03T21:38:19.208Z,17.60
2022-09-03T21:42:36.618Z,17.67
2022-09-03T21:46:48.245Z,17.72
2022-09-03T21:51:00.140Z,17.72
2022-09-03T21:55:19.215Z,17.70
2022-09-03T21:59:29.923Z,17.66
2022-09-03T22:03:31.594Z,17.62
2022-09-03T22:08:30.716Z,17.52
2022-09-03T22:12:50.418Z,17.44
2022-09-03T22:17:02.875Z,17.35
2022-09-03T22:21:11.445Z,17.24
2022-09-03T22:25:21.416Z,17.18
2022-09-03T22:29:55.071Z,17.14
2022-09-03T22:34:21.177Z,17.08
2022-09-03T22:38:39.661Z,17.03
2022-09-03T22:43:13.850Z,16.99
2022-09-03T22:47:30.199Z,16.93
2022-09-03T22:52:14.102Z,16.91
2022-09-03T22:56:22.366Z,16.87
2022-09-03T23:00:24.147Z,16.86
2022-09-03T23:04:31.484Z,16.82
2022-09-03T23:08:49.929Z,16.79
2022-09-03T23:13:17.737Z,16.76
2022-09-03T23:21:41.522Z,16.65
2022-09-03T23:25:49.580Z,16.62
2022-09-03T23:29:54.948Z,16.57
2022-09-03T23:33:57.341Z,16.55
2022-09-03T23:38:23.177Z,16.54
2022-09-03T23:42:39.973Z,16.51
2022-09-03T23:47:07.655Z,16.52
2022-09-03T23:51:34.145Z,16.49
2022-09-03T23:56:05.240Z,16.39
